KLNK/LNK METAR and TAF weather

Enter ICAO airport designator
Station Type Date Time Source
KLNK METAR 2022/06/29 23:54 UTC NOAA

KLNK 292354Z 19016G25KT 10SM CLR 33/14 A2998 RMK AO2 PK WND 21031/2258 SLP140 T03280139 10350 20328 56013


Station Type Date Time Source
KLNK Decoded METAR 2022/06/29 23:54 UTC NOAA

LINCOLN MUNICIPAL AIRPORT, NE, United States (KLNK) 40-50N 96-46W 364M
Jun 29, 2022 - 07:54 PM EDT / 2022.06.29 2354 UTC
Wind: from the S (190 degrees) at 18 MPH (16 KT) gusting to 29 MPH (25 KT):0
Visibility: 10 mile(s):0
Sky conditions: clear
Temperature: 91.0 F (32.8 C)
Dew Point: 57.0 F (13.9 C)
Relative Humidity: 31%
Pressure (altimeter): 29.98 in. Hg (1015 hPa)
Pressure tendency: 0.04 inches (1.3 hPa) lower than three hours ago
ob: KLNK 292354Z 19016G25KT 10SM CLR 33/14 A2998 RMK AO2 PK WND 21031/2258 SLP140 T03280139 10350 20328 56013
cycle: 0

Station Type Date Time Source
KLNK TAF 2022/06/29 18:24 UTC NOAA

TAF KLNK 291721Z 2918/3018 20017G27KT P6SM SKC
FM300100 17015G23KT P6SM SKC
FM300400 18014KT P6SM FEW250 WS020/20045KT
FM301400 20015G28KT P6SM FEW250

Example: see airport list